Time;durP1;ratioP1;P1;durP2;ratioP2;P2;SDS_P1;SDS_P2;PMS_P1;PMS_P2;Temp;Humidity;BMP_temperature;BMP_pressure;BME280_temperature;BME280_humidity;BME280_pressure;Samples;Min_cycle;Max_cycle;Signal;HPM_P1;HPM_P2
2021/04/18 00:01:19;;;;;;;57.98;27.95;;;;;;;9.23;77.44;100442.38;147709;1147;104516;-76
2021/04/18 00:04:23;;;;;;;62.38;26.50;;;;;;;9.23;77.44;100447.70;147778;1148;104546;-75
2021/04/18 00:07:26;;;;;;;51.25;26.15;;;;;;;9.28;77.45;100449.14;147544;1147;104547;-76
2021/04/18 00:10:30;;;;;;;52.55;26.97;;;;;;;9.28;77.13;100444.64;147365;1147;104527;-75
2021/04/18 00:13:33;;;;;;;54.13;28.27;;;;;;;9.25;76.94;100439.59;147796;1147;104444;-76
2021/04/18 00:16:37;;;;;;;64.05;31.93;;;;;;;9.24;77.07;100448.57;147707;1147;104546;-75
2021/04/18 00:19:40;;;;;;;61.98;30.70;;;;;;;9.23;76.97;100441.55;147840;1148;104492;-76
2021/04/18 00:22:45;;;;;;;53.50;25.72;;;;;;;9.20;77.18;100441.84;147763;1146;104458;-75
2021/04/18 00:25:48;;;;;;;61.83;29.05;;;;;;;9.21;77.40;100457.66;147736;1147;104519;-76
2021/04/18 00:28:51;;;;;;;52.73;27.10;;;;;;;9.25;76.96;100452.90;147762;1147;104473;-76
2021/04/18 00:31:54;;;;;;;58.20;29.05;;;;;;;9.23;77.18;100457.52;147759;1148;104611;-78
2021/04/18 00:34:57;;;;;;;53.30;28.35;;;;;;;9.21;77.17;100459.48;147771;1148;104543;-75
2021/04/18 00:38:01;;;;;;;61.20;29.15;;;;;;;9.18;77.29;100455.30;147692;1147;104476;-76
2021/04/18 00:41:04;;;;;;;62.30;31.00;;;;;;;9.16;77.32;100461.72;147307;1147;104525;-75
2021/04/18 00:44:10;;;;;;;62.50;29.00;;;;;;;9.12;77.17;100462.97;147468;1148;104852;-76
2021/04/18 00:47:15;;;;;;;56.55;26.60;;;;;;;9.06;77.54;100469.69;147618;1147;104535;-75
2021/04/18 00:50:24;;;;;;;62.27;27.30;;;;;;;9.07;77.30;100468.73;147591;1147;104915;-75
2021/04/18 00:53:27;;;;;;;59.70;28.87;;;;;;;9.12;77.21;100471.83;147705;1147;104543;-78
2021/04/18 00:56:30;;;;;;;66.92;32.35;;;;;;;9.16;77.42;100461.72;147749;1147;104559;-75
2021/04/18 00:59:34;;;;;;;61.73;31.02;;;;;;;9.17;77.33;100458.92;147729;1148;104476;-77
2021/04/18 01:02:37;;;;;;;66.60;32.15;;;;;;;9.15;77.36;100463.55;147723;1147;104455;-76
2021/04/18 01:05:41;;;;;;;63.05;30.43;;;;;;;9.13;77.32;100459.34;147764;1147;104506;-76
2021/04/18 01:08:44;;;;;;;62.43;28.73;;;;;;;9.10;77.04;100455.13;147755;1147;104538;-75
2021/04/18 01:11:48;;;;;;;57.38;25.88;;;;;;;9.13;77.48;100464.67;147777;1148;104551;-79
2021/04/18 01:14:51;;;;;;;57.67;28.65;;;;;;;9.15;77.30;100462.71;147773;1148;104584;-78
2021/04/18 01:17:55;;;;;;;61.13;29.10;;;;;;;9.12;77.50;100461.18;147711;1147;104562;-78
2021/04/18 01:21:07;;;;;;;54.67;26.93;;;;;;;9.12;77.45;100455.86;147824;1147;104534;-77
2021/04/18 01:24:29;;;;;;;61.55;30.15;;;;;;;9.10;77.44;100451.63;147721;1148;104489;-74
2021/04/18 01:27:44;;;;;;;57.23;28.00;;;;;;;9.08;77.31;100440.28;147376;1148;104446;-74
2021/04/18 01:30:48;;;;;;;59.45;25.72;;;;;;;9.07;77.16;100446.59;147774;1147;104455;-74
2021/04/18 01:33:51;;;;;;;44.55;21.10;;;;;;;9.09;77.62;100442.81;147795;1147;104640;-75
2021/04/18 01:36:56;;;;;;;49.70;24.80;;;;;;;9.11;77.32;100438.19;147943;1147;104633;-75
2021/04/18 01:40:03;;;;;;;51.70;27.67;;;;;;;9.14;77.30;100437.92;147745;1148;104532;-77
2021/04/18 01:43:06;;;;;;;54.83;29.00;;;;;;;9.14;77.33;100447.70;147755;1147;104841;-74
2021/04/18 01:46:11;;;;;;;48.80;24.67;;;;;;;9.12;77.34;100436.36;147781;1147;104481;-73
2021/04/18 01:49:15;;;;;;;51.47;25.37;;;;;;;9.09;77.30;100434.82;147776;1148;104614;-77
2021/04/18 01:52:20;;;;;;;49.53;22.65;;;;;;;9.09;77.55;100439.31;147819;1147;104546;-75
2021/04/18 01:55:25;;;;;;;44.35;21.80;;;;;;;9.09;77.26;100436.66;147731;1147;104540;-74
2021/04/18 01:58:30;;;;;;;47.40;24.10;;;;;;;9.11;77.36;100432.86;147686;1147;104904;-77
2021/04/18 02:01:42;;;;;;;45.08;23.80;;;;;;;9.15;77.28;100438.75;147733;1147;104446;-75
2021/04/18 02:04:45;;;;;;;59.20;30.30;;;;;;;9.17;77.65;100431.47;147416;1147;104611;-74
2021/04/18 02:07:49;;;;;;;64.45;31.07;;;;;;;9.15;77.45;100434.27;147438;1147;104512;-75
2021/04/18 02:10:52;;;;;;;52.73;27.00;;;;;;;9.11;77.68;100429.37;147740;1147;104467;-75
2021/04/18 02:13:57;;;;;;;51.50;26.15;;;;;;;9.04;77.38;100429.92;147717;1147;104473;-74
2021/04/18 02:17:18;;;;;;;52.93;24.57;;;;;;;9.02;77.60;100429.20;147717;1147;104561;-74
2021/04/18 02:20:22;;;;;;;52.70;24.50;;;;;;;9.05;77.46;100417.45;147706;1147;104629;-78
2021/04/18 02:23:27;;;;;;;51.47;25.93;;;;;;;9.10;77.60;100419.69;147703;1147;104618;-76
2021/04/18 02:26:31;;;;;;;52.43;28.02;;;;;;;9.14;77.11;100421.08;147651;1147;104444;-76
2021/04/18 02:29:34;;;;;;;59.35;29.63;;;;;;;9.08;77.25;100426.97;147619;1147;104553;-78
2021/04/18 02:32:46;;;;;;;53.25;28.15;;;;;;;9.07;77.31;100417.32;147763;1147;104543;-77
2021/04/18 02:35:49;;;;;;;53.05;27.10;;;;;;;9.05;77.44;100412.12;147785;1148;104609;-75
2021/04/18 02:38:53;;;;;;;52.62;23.83;;;;;;;9.01;77.29;100414.22;147825;1147;104504;-75
2021/04/18 02:41:57;;;;;;;45.40;21.95;;;;;;;9.01;77.32;100408.06;147774;1147;104508;-76
2021/04/18 02:45:01;;;;;;;50.38;24.80;;;;;;;9.02;77.41;100410.56;147540;1148;104471;-76
2021/04/18 02:48:09;;;;;;;57.38;28.00;;;;;;;9.07;77.54;100410.16;147771;1147;104546;-76
2021/04/18 02:51:13;;;;;;;50.60;26.10;;;;;;;9.09;77.48;100399.38;147775;1147;104626;-77
2021/04/18 02:54:17;;;;;;;53.80;26.50;;;;;;;9.09;77.16;100402.87;147801;1146;104461;-75
2021/04/18 02:57:25;;;;;;;51.00;27.22;;;;;;;9.08;77.32;100405.67;147730;1145;104595;-74
2021/04/18 03:00:29;;;;;;;55.15;25.35;;;;;;;9.06;77.49;100407.64;147581;1147;104467;-74
2021/04/18 03:03:34;;;;;;;43.53;21.97;;;;;;;9.07;77.19;100412.00;147669;1147;104547;-73
2021/04/18 03:06:37;;;;;;;50.37;25.50;;;;;;;9.07;77.04;100404.02;147759;1147;104630;-74
2021/04/18 03:09:41;;;;;;;47.73;24.45;;;;;;;9.07;77.24;100409.34;147346;1147;104505;-74
2021/04/18 03:12:45;;;;;;;51.13;25.63;;;;;;;9.08;77.23;100405.67;147432;1148;104469;-73
2021/04/18 03:15:51;;;;;;;50.70;24.52;;;;;;;9.07;77.42;100409.34;147745;1147;104473;-73
2021/04/18 03:18:54;;;;;;;52.00;26.23;;;;;;;9.07;76.80;100412.00;147695;1147;104516;-75
2021/04/18 03:21:58;;;;;;;55.45;28.55;;;;;;;9.01;77.36;100414.22;147769;1147;104607;-76
2021/04/18 03:25:02;;;;;;;50.98;23.92;;;;;;;8.98;77.41;100419.81;147762;1147;104472;-74
2021/04/18 03:28:06;;;;;;;51.77;24.23;;;;;;;8.99;76.96;100434.81;147763;1147;104451;-74
2021/04/18 03:31:15;;;;;;;51.73;25.55;;;;;;;9.00;77.21;100436.48;147782;1147;104540;-76
2021/04/18 03:34:26;;;;;;;54.35;26.20;;;;;;;9.02;77.18;100433.69;147763;1148;104516;-75
2021/04/18 03:37:31;;;;;;;64.27;30.48;;;;;;;9.02;76.90;100441.67;147720;1147;104559;-76
2021/04/18 03:40:34;;;;;;;60.73;28.27;;;;;;;9.00;77.16;100451.62;147396;1147;104455;-77
2021/04/18 03:43:37;;;;;;;66.67;32.35;;;;;;;8.99;77.26;100452.61;147540;1147;104543;-78
2021/04/18 03:46:43;;;;;;;71.62;32.23;;;;;;;8.92;76.70;100454.97;147683;1147;104498;-74
2021/04/18 03:49:47;;;;;;;67.37;27.48;;;;;;;8.83;77.34;100455.78;147587;1147;104584;-74
2021/04/18 03:52:55;;;;;;;67.05;28.05;;;;;;;8.83;76.89;100458.45;147774;1147;104531;-73
2021/04/18 03:56:00;;;;;;;60.98;28.12;;;;;;;8.84;77.35;100458.31;147830;1147;104540;-73
2021/04/18 03:59:09;;;;;;;66.73;29.63;;;;;;;8.87;76.97;100457.19;147742;1148;104995;-76
2021/04/18 04:02:13;;;;;;;62.08;29.20;;;;;;;8.89;77.35;100454.40;147672;1147;105015;-73
2021/04/18 04:05:20;;;;;;;53.37;27.20;;;;;;;8.89;77.22;100454.40;147443;1147;104508;-73
2021/04/18 04:08:24;;;;;;;63.95;30.05;;;;;;;8.89;77.26;100455.27;147789;1146;104886;-74
2021/04/18 04:11:28;;;;;;;54.93;25.03;;;;;;;8.78;77.13;100452.72;147739;1147;104549;-74
2021/04/18 04:14:31;;;;;;;45.45;22.20;;;;;;;8.79;77.11;100459.70;147704;1148;104540;-75
2021/04/18 04:17:37;;;;;;;54.20;27.15;;;;;;;8.81;77.06;100457.74;147365;1145;104533;-76
2021/04/18 04:20:59;;;;;;;49.00;24.15;;;;;;;8.84;77.07;100452.16;147253;1147;104532;-75
2021/04/18 04:24:38;;;;;;;50.55;25.52;;;;;;;8.80;76.82;100442.77;146627;1150;104683;-77
2021/04/18 04:27:42;;;;;;;50.78;25.27;;;;;;;8.82;76.67;100457.61;147466;1147;104522;-77
2021/04/18 04:30:45;;;;;;;52.62;26.52;;;;;;;8.80;77.21;100459.57;147779;1147;104498;-77
2021/04/18 04:33:48;;;;;;;57.05;27.85;;;;;;;8.76;77.30;100459.99;147763;1147;104553;-75
2021/04/18 04:36:51;;;;;;;48.17;21.62;;;;;;;8.73;76.53;100465.58;147524;1147;104544;-76
2021/04/18 04:39:54;;;;;;;60.90;26.93;;;;;;;8.76;77.04;100465.31;147735;1147;104601;-77
2021/04/18 04:42:57;;;;;;;61.53;30.23;;;;;;;8.82;76.82;100468.25;147801;1147;104525;-78
2021/04/18 04:46:01;;;;;;;61.33;29.20;;;;;;;8.87;77.18;100459.02;147779;1147;104457;-78
2021/04/18 04:49:04;;;;;;;68.67;29.97;;;;;;;8.91;76.97;100469.27;147743;1147;104528;-78
2021/04/18 04:52:09;;;;;;;58.40;28.15;;;;;;;8.95;77.22;100465.35;147813;1147;104576;-78
2021/04/18 04:55:15;;;;;;;65.47;29.82;;;;;;;8.96;76.85;100461.69;147776;1147;104532;-77
2021/04/18 04:58:18;;;;;;;59.13;28.77;;;;;;;8.96;76.89;100460.86;147833;1147;104541;-77
2021/04/18 05:01:22;;;;;;;52.53;22.80;;;;;;;8.95;76.77;100460.03;147735;1148;104534;-76
2021/04/18 05:04:25;;;;;;;49.83;22.65;;;;;;;8.98;77.06;100456.24;147707;1147;104508;-76
2021/04/18 05:07:28;;;;;;;57.58;27.22;;;;;;;9.08;76.93;100459.75;147419;1147;104911;-76
2021/04/18 05:10:31;;;;;;;116.97;61.50;;;;;;;9.12;76.65;100458.52;147725;1147;104498;-78
2021/04/18 05:13:34;;;;;;;68.47;33.83;;;;;;;9.11;77.05;100466.63;147708;1147;104551;-83
2021/04/18 05:16:37;;;;;;;62.05;30.35;;;;;;;9.16;76.71;100464.37;147783;1147;104550;-76
2021/04/18 05:19:41;;;;;;;53.23;26.10;;;;;;;9.14;76.53;100464.55;147750;1147;104647;-75
2021/04/18 05:22:44;;;;;;;67.40;28.83;;;;;;;9.14;76.97;100469.86;147664;1146;104569;-75
2021/04/18 05:25:47;;;;;;;68.33;27.30;;;;;;;9.16;76.46;100462.58;147715;1147;104586;-78
2021/04/18 05:28:53;;;;;;;48.65;22.60;;;;;;;9.22;77.04;100462.02;147828;1147;104470;-74
2021/04/18 05:31:56;;;;;;;51.70;24.27;;;;;;;9.34;76.79;100473.38;147707;1147;104543;-76
2021/04/18 05:34:59;;;;;;;43.80;23.27;;;;;;;9.41;76.36;100471.84;147925;1147;104559;-75
2021/04/18 05:38:02;;;;;;;54.03;25.62;;;;;;;9.42;76.79;100473.50;147533;1147;104467;-76
2021/04/18 05:41:06;;;;;;;46.40;23.67;;;;;;;9.48;76.27;100473.93;147415;1147;104527;-79
2021/04/18 05:44:13;;;;;;;46.45;22.62;;;;;;;9.55;76.84;100475.89;147826;1147;104544;-78
2021/04/18 05:47:17;;;;;;;47.77;24.83;;;;;;;9.61;76.66;100485.98;147299;1147;104655;-77
2021/04/18 05:50:20;;;;;;;49.20;23.30;;;;;;;9.71;76.46;100480.64;147634;1147;104465;-76
2021/04/18 05:53:23;;;;;;;44.13;20.90;;;;;;;9.76;76.15;100486.39;147715;1147;104544;-76
2021/04/18 05:56:27;;;;;;;42.20;21.93;;;;;;;9.87;76.19;100487.21;147644;1147;104610;-81
2021/04/18 05:59:30;;;;;;;39.53;20.40;;;;;;;10.02;75.67;100483.95;147711;1147;104511;-77
2021/04/18 06:02:33;;;;;;;38.90;21.02;;;;;;;10.15;76.15;100491.64;147727;1147;104877;-76
2021/04/18 06:05:36;;;;;;;38.60;21.02;;;;;;;10.23;75.61;100489.08;147641;1148;104470;-74
2021/04/18 06:08:40;;;;;;;35.23;19.85;;;;;;;10.27;75.89;100483.47;147741;1147;104478;-77
2021/04/18 06:11:43;;;;;;;37.13;20.88;;;;;;;10.29;75.56;100484.16;147883;1147;104451;-75
2021/04/18 06:14:47;;;;;;;36.33;20.07;;;;;;;10.23;75.25;100489.08;147769;1147;104460;-78
2021/04/18 06:17:50;;;;;;;38.13;20.45;;;;;;;10.18;75.70;100491.37;147398;1147;104468;-76
2021/04/18 06:20:54;;;;;;;37.35;19.55;;;;;;;10.16;75.49;100487.14;147491;1147;104470;-79
2021/04/18 06:23:57;;;;;;;43.50;23.55;;;;;;;10.18;75.51;100498.50;147392;1145;104473;-74
2021/04/18 06:27:00;;;;;;;52.90;26.73;;;;;;;10.20;75.39;100493.89;147779;1147;104648;-78
2021/04/18 06:30:06;;;;;;;50.15;27.30;;;;;;;10.29;75.13;100497.50;147775;1147;104546;-77
2021/04/18 06:33:09;;;;;;;47.00;24.90;;;;;;;10.46;75.11;100501.27;147801;1147;104495;-77
2021/04/18 06:36:13;;;;;;;486.55;282.77;;;;;;;10.55;75.47;100498.56;147507;1147;104529;-79
2021/04/18 06:39:16;;;;;;;193.22;77.80;;;;;;;10.63;75.05;100502.33;147847;1146;104479;-77
2021/04/18 06:42:22;;;;;;;81.53;39.27;;;;;;;10.70;74.54;100500.73;147731;1147;104530;-78
2021/04/18 06:45:25;;;;;;;59.60;31.30;;;;;;;10.74;75.01;100510.12;147542;1147;104505;-72
2021/04/18 06:48:29;;;;;;;52.53;26.82;;;;;;;10.76;74.27;100505.50;147689;1147;104546;-74
2021/04/18 06:51:33;;;;;;;43.42;22.75;;;;;;;10.81;74.65;100508.55;147809;1147;104467;-72
2021/04/18 06:54:36;;;;;;;40.48;22.82;;;;;;;10.89;74.87;100510.47;147593;1148;104472;-71
2021/04/18 06:57:39;;;;;;;44.35;25.50;;;;;;;10.96;74.52;100512.39;147655;1147;104622;-70
2021/04/18 07:00:43;;;;;;;40.00;22.80;;;;;;;11.05;73.87;100508.01;147568;1147;104447;-72
2021/04/18 07:04:13;;;;;;;66.05;30.95;;;;;;;11.13;74.50;100508.09;147397;1148;104450;-73
2021/04/18 07:07:27;;;;;;;39.33;22.45;;;;;;;11.22;74.56;100503.69;147727;1147;104939;-76
2021/04/18 07:10:31;;;;;;;50.08;28.02;;;;;;;11.29;73.77;100510.08;147788;1147;104566;-72
2021/04/18 07:13:34;;;;;;;40.10;23.90;;;;;;;11.39;74.30;100510.00;147363;1148;104623;-73
2021/04/18 07:16:37;;;;;;;78.30;44.70;;;;;;;11.35;73.89;100521.99;147769;1147;104547;-72
2021/04/18 07:19:43;;;;;;;49.40;28.23;;;;;;;11.28;74.04;100515.56;147649;1147;104546;-71
2021/04/18 07:22:46;;;;;;;41.50;24.47;;;;;;;11.25;74.22;100508.70;147435;1147;104546;-72
2021/04/18 07:25:50;;;;;;;38.28;23.52;;;;;;;11.33;74.06;100511.45;147344;1148;104451;-71
2021/04/18 07:29:11;;;;;;;173.53;118.20;;;;;;;11.51;74.50;100515.96;147434;1147;104612;-72
2021/04/18 07:32:22;;;;;;;50.90;31.35;;;;;;;11.65;73.59;100510.09;147613;1147;104470;-72
2021/04/18 07:35:44;;;;;;;;;;;;;;;11.73;73.59;100517.34;147779;1147;104543;-73
2021/04/18 07:38:52;;;;;;;37.95;23.83;;;;;;;11.80;73.19;100521.09;147683;1147;104547;-74
2021/04/18 07:41:55;;;;;;;38.70;26.40;;;;;;;11.79;73.65;100519.39;147523;1147;104556;-68
2021/04/18 07:45:00;;;;;;;114.15;101.60;;;;;;;11.79;73.75;100524.73;147399;1147;104616;-71
2021/04/18 07:48:03;;;;;;;53.85;40.58;;;;;;;11.74;72.95;100522.54;147726;1147;104528;-72
2021/04/18 07:51:07;;;;;;;36.45;25.23;;;;;;;11.81;72.72;100519.24;147529;1147;104486;-71
2021/04/18 07:54:11;;;;;;;32.25;21.50;;;;;;;11.85;72.62;100523.28;147409;1147;104940;-81
2021/04/18 07:57:18;;;;;;;29.80;20.53;;;;;;;11.84;72.28;100522.45;147709;1147;104523;-81
2021/04/18 08:00:23;;;;;;;32.15;20.40;;;;;;;11.75;72.71;100524.20;147559;1147;104630;-67
2021/04/18 08:03:27;;;;;;;34.53;21.50;;;;;;;11.77;72.96;100524.05;147600;1147;104507;-69
2021/04/18 08:06:31;;;;;;;30.77;20.03;;;;;;;11.76;72.41;100531.24;147486;1147;104444;-72
2021/04/18 08:09:34;;;;;;;38.85;25.20;;;;;;;11.81;72.65;100532.61;147567;1147;104553;-73
2021/04/18 08:12:37;;;;;;;65.08;34.63;;;;;;;11.90;72.17;100535.23;147721;1148;104540;-75
2021/04/18 08:15:43;;;;;;;30.32;18.10;;;;;;;12.00;71.53;100532.46;147597;1147;104564;-75
2021/04/18 08:18:47;;;;;;;30.12;18.73;;;;;;;12.12;72.07;100527.70;148579;1146;104554;-69
2021/04/18 08:21:53;;;;;;;30.70;18.98;;;;;;;12.24;71.96;100528.27;147874;1147;104535;-70
2021/04/18 08:25:09;;;;;;;30.37;18.33;;;;;;;12.40;71.38;100527.56;147378;1147;105153;-69
2021/04/18 08:28:14;;;;;;;27.85;16.97;;;;;;;12.49;71.33;100523.91;147552;1147;104445;-71
2021/04/18 08:31:18;;;;;;;27.60;17.27;;;;;;;12.59;70.76;100527.33;148065;1147;104461;-68
2021/04/18 08:34:22;;;;;;;27.67;18.10;;;;;;;12.68;70.89;100529.05;147588;1147;104544;-76
2021/04/18 08:37:26;;;;;;;29.92;19.55;;;;;;;12.80;70.37;100526.06;147716;1147;104532;-71
2021/04/18 08:40:32;;;;;;;28.03;19.13;;;;;;;12.92;69.85;100525.63;147935;1147;104559;-70
2021/04/18 08:43:35;;;;;;;25.73;16.80;;;;;;;12.95;70.30;100517.27;147981;1146;104490;-67
2021/04/18 08:46:38;;;;;;;23.73;15.53;;;;;;;13.00;70.00;100515.95;148708;1146;104486;-72
2021/04/18 08:49:44;;;;;;;25.30;17.10;;;;;;;13.07;69.88;100514.30;148087;1147;104542;-73
2021/04/18 08:52:47;;;;;;;26.27;17.05;;;;;;;13.12;70.58;100515.46;148027;1147;104463;-71
2021/04/18 08:55:57;;;;;;;26.60;17.60;;;;;;;13.24;69.75;100521.38;147944;1148;104470;-70
2021/04/18 08:59:10;;;;;;;24.37;16.05;;;;;;;13.37;69.82;100509.36;147497;1147;104460;-70
2021/04/18 09:02:15;;;;;;;22.37;16.35;;;;;;;13.49;69.68;100508.03;147833;1147;104617;-70
2021/04/18 09:05:20;;;;;;;61.53;31.82;;;;;;;13.57;69.47;100510.73;147279;1147;104466;-70
2021/04/18 09:08:23;;;;;;;27.93;17.77;;;;;;;13.73;69.12;100518.78;147403;1148;104476;-71
2021/04/18 09:11:27;;;;;;;25.08;16.85;;;;;;;13.84;68.37;100506.89;147453;1147;104463;-70
2021/04/18 09:14:32;;;;;;;22.40;15.68;;;;;;;13.73;68.40;100504.54;147501;1147;104553;-70
2021/04/18 09:17:38;;;;;;;22.48;16.55;;;;;;;13.72;67.92;100514.44;147600;1147;104742;-71
2021/04/18 09:20:42;;;;;;;31.00;21.82;;;;;;;13.61;68.90;100517.45;147049;1147;104527;-69
2021/04/18 09:24:01;;;;;;;35.58;25.45;;;;;;;13.67;68.65;100516.77;147346;1148;104909;-70
2021/04/18 09:27:07;;;;;;;30.97;19.05;;;;;;;13.71;68.24;100526.16;147257;1147;104540;-68
2021/04/18 09:30:14;;;;;;;27.05;18.12;;;;;;;13.64;67.22;100522.45;147029;1147;104515;-70
2021/04/18 09:33:17;;;;;;;26.62;18.32;;;;;;;13.60;66.35;100518.43;147446;1147;104544;-69
2021/04/18 09:36:21;;;;;;;23.95;17.55;;;;;;;13.60;67.93;100520.28;147343;1147;104877;-70
2021/04/18 09:39:29;;;;;;;25.62;17.62;;;;;;;13.52;67.56;100523.80;147520;1147;104480;-70
2021/04/18 09:42:34;;;;;;;26.33;17.27;;;;;;;13.44;67.44;100519.26;147426;1147;104477;-70
2021/04/18 09:45:37;;;;;;;26.13;18.17;;;;;;;13.40;67.57;100515.23;147474;1148;104433;-70
2021/04/18 09:48:41;;;;;;;39.80;25.92;;;;;;;13.30;67.66;100515.39;147489;1147;104544;-70
2021/04/18 09:51:59;;;;;;;25.17;17.32;;;;;;;13.24;67.30;100509.80;147617;1147;104492;-70
2021/04/18 09:55:15;;;;;;;40.65;28.77;;;;;;;13.23;67.42;100513.50;147527;1147;104522;-69
2021/04/18 09:58:27;;;;;;;63.63;45.43;;;;;;;13.39;67.30;100524.27;147571;1147;104543;-70
2021/04/18 10:01:34;;;;;;;93.55;64.70;;;;;;;13.56;66.68;100517.09;147617;1147;104452;-70
2021/04/18 10:04:37;;;;;;;125.50;88.85;;;;;;;13.75;66.68;100516.77;147625;1148;104554;-69
2021/04/18 10:07:41;;;;;;;36.23;26.42;;;;;;;14.04;67.08;100515.41;147606;1147;104473;-71
2021/04/18 10:10:45;;;;;;;27.67;19.00;;;;;;;14.25;67.00;100509.52;147569;1147;104473;-71
2021/04/18 10:13:50;;;;;;;36.85;26.20;;;;;;;14.28;64.95;100502.95;147433;1147;105032;-70
2021/04/18 10:16:53;;;;;;;23.98;17.32;;;;;;;14.17;65.89;100512.22;147465;1147;104438;-69
2021/04/18 10:19:57;;;;;;;35.33;25.10;;;;;;;14.08;66.26;100511.37;147561;1147;104625;-70
2021/04/18 10:23:09;;;;;;;24.73;18.07;;;;;;;14.06;66.84;100513.39;147498;1146;104488;-69
2021/04/18 10:26:14;;;;;;;22.73;16.93;;;;;;;14.01;65.76;100518.45;147589;1147;104500;-70
2021/04/18 10:29:17;;;;;;;25.50;19.48;;;;;;;14.00;66.49;100511.40;147333;1147;104889;-70
2021/04/18 10:32:22;;;;;;;22.02;15.23;;;;;;;14.11;66.25;100516.42;147576;1147;104449;-71
2021/04/18 10:35:25;;;;;;;22.85;16.23;;;;;;;14.21;65.86;100512.72;147614;1147;104598;-70
2021/04/18 10:38:28;;;;;;;23.55;16.32;;;;;;;14.15;65.47;100508.88;147662;1147;104450;-69
2021/04/18 10:41:31;;;;;;;21.02;15.35;;;;;;;14.19;66.03;100502.16;147527;1147;104546;-70
2021/04/18 10:44:35;;;;;;;25.05;16.40;;;;;;;14.24;65.33;100507.86;147603;1147;105372;-70
2021/04/18 10:47:38;;;;;;;22.33;15.60;;;;;;;14.35;65.09;100509.32;147598;1147;104547;-70
2021/04/18 10:50:41;;;;;;;21.35;15.05;;;;;;;14.40;65.66;100506.97;147161;1147;104695;-72
2021/04/18 10:53:44;;;;;;;22.97;16.13;;;;;;;14.52;65.15;100500.21;147359;1147;104489;-70
2021/04/18 10:56:49;;;;;;;23.55;16.32;;;;;;;14.51;64.63;100508.44;147264;1148;104489;-71
2021/04/18 10:59:52;;;;;;;23.35;16.15;;;;;;;14.48;65.09;100511.48;147352;1148;104425;-70
2021/04/18 11:02:56;;;;;;;23.60;15.05;;;;;;;14.48;64.59;100506.11;147802;1147;104534;-70
2021/04/18 11:05:59;;;;;;;22.47;15.87;;;;;;;14.51;64.04;100503.92;147431;1147;104602;-71
2021/04/18 11:09:02;;;;;;;23.65;16.45;;;;;;;14.60;64.80;100507.44;147658;1148;104636;-69
2021/04/18 11:12:14;;;;;;;21.05;15.13;;;;;;;14.67;64.34;100503.05;147441;1147;104472;-71
2021/04/18 11:15:18;;;;;;;25.30;17.32;;;;;;;14.76;64.40;100505.70;147632;1146;104534;-70
2021/04/18 11:18:21;;;;;;;23.60;16.45;;;;;;;14.64;64.10;100502.55;147586;1147;104602;-70
2021/04/18 11:21:25;;;;;;;28.35;20.60;;;;;;;14.68;64.01;100504.74;147690;1147;104647;-71
2021/04/18 11:24:28;;;;;;;23.18;16.52;;;;;;;14.83;64.20;100501.31;147777;1147;104497;-71
2021/04/18 11:27:31;;;;;;;23.73;17.43;;;;;;;14.92;64.16;100498.41;147729;1147;104451;-71
2021/04/18 11:30:34;;;;;;;21.23;15.50;;;;;;;15.05;64.05;100494.30;147605;1147;104489;-69
2021/04/18 11:33:38;;;;;;;21.70;16.17;;;;;;;15.12;63.21;100500.66;147451;1147;104462;-72
2021/04/18 11:36:45;;;;;;;22.77;17.23;;;;;;;15.08;63.65;100502.02;148246;1147;104469;-73
2021/04/18 11:39:48;;;;;;;21.57;16.02;;;;;;;15.09;63.80;100485.73;147490;1147;104582;-72
2021/04/18 11:42:51;;;;;;;37.00;27.85;;;;;;;15.08;62.83;100493.96;147403;1147;104458;-72
2021/04/18 11:45:56;;;;;;;270.90;192.75;;;;;;;15.07;63.36;100487.75;147329;1147;104538;-72
2021/04/18 11:49:00;;;;;;;311.10;251.75;;;;;;;15.06;63.46;100488.75;147736;1147;104470;-72
2021/04/18 11:52:03;;;;;;;182.50;137.40;;;;;;;15.06;63.38;100490.61;147726;1147;104580;-72
2021/04/18 11:55:08;;;;;;;124.53;86.90;;;;;;;15.14;63.54;100493.25;147705;1148;104467;-71
2021/04/18 11:58:12;;;;;;;92.30;61.75;;;;;;;15.26;63.52;100481.09;147780;1147;104525;-71
2021/04/18 12:01:15;;;;;;;90.95;63.13;;;;;;;15.46;62.63;100481.44;147970;1147;104487;-72
2021/04/18 12:04:18;;;;;;;37.58;26.95;;;;;;;15.91;62.36;100470.84;147943;1147;104464;-72
2021/04/18 12:07:21;;;;;;;32.58;23.38;;;;;;;16.10;61.96;100469.48;147374;1147;104602;-72
2021/04/18 12:10:24;;;;;;;42.38;31.17;;;;;;;16.05;61.98;100467.35;147912;1148;104426;-71
2021/04/18 12:13:27;;;;;;;32.97;25.03;;;;;;;15.95;62.47;100469.45;147799;1147;104542;-72
2021/04/18 12:16:30;;;;;;;20.88;15.85;;;;;;;15.85;61.74;100466.20;147728;1147;104547;-72
2021/04/18 12:19:34;;;;;;;19.50;14.10;;;;;;;15.75;61.66;100468.31;147798;1147;104988;-72
2021/04/18 12:22:37;;;;;;;20.30;15.10;;;;;;;15.60;60.19;100463.68;147764;1147;104911;-73
2021/04/18 12:25:40;;;;;;;18.48;13.25;;;;;;;15.37;61.04;100474.45;147414;1147;104523;-69
2021/04/18 12:28:43;;;;;;;20.40;14.93;;;;;;;15.29;61.89;100463.76;147001;1147;104492;-70
2021/04/18 12:31:47;;;;;;;54.85;31.15;;;;;;;15.25;61.39;100468.65;147725;1148;105141;-71
2021/04/18 12:34:51;;;;;;;37.55;23.22;;;;;;;15.24;62.04;100460.76;147983;1147;104486;-71
2021/04/18 12:37:54;;;;;;;23.38;16.23;;;;;;;15.26;61.10;100464.96;147699;1147;104513;-72
2021/04/18 12:40:57;;;;;;;36.30;22.37;;;;;;;15.25;61.01;100463.27;147839;1147;104538;-70
2021/04/18 12:44:01;;;;;;;25.27;17.27;;;;;;;15.20;61.25;100459.45;147217;1148;104498;-72
2021/04/18 12:47:06;;;;;;;25.97;18.52;;;;;;;15.19;60.96;100458.62;147537;1147;104589;-72
2021/04/18 12:50:12;;;;;;;27.87;18.27;;;;;;;15.22;61.04;100452.90;148005;1146;104543;-69
2021/04/18 12:53:15;;;;;;;25.17;18.65;;;;;;;15.28;60.88;100454.87;147471;1147;104555;-69
2021/04/18 12:56:18;;;;;;;18.15;12.98;;;;;;;15.36;60.16;100447.73;147315;1147;104451;-71
2021/04/18 12:59:22;;;;;;;19.67;14.63;;;;;;;15.50;60.91;100447.80;147353;1147;104485;-69
2021/04/18 13:02:27;;;;;;;27.00;20.65;;;;;;;15.73;60.78;100446.11;147128;1147;104945;-71
2021/04/18 13:05:30;;;;;;;40.03;33.00;;;;;;;15.90;60.19;100445.80;147385;1148;104549;-70
2021/04/18 13:08:33;;;;;;;20.90;15.40;;;;;;;16.00;59.99;100448.22;147580;1147;104600;-69
2021/04/18 13:11:37;;;;;;;16.70;12.37;;;;;;;16.15;59.80;100440.16;147565;1147;104550;-72
2021/04/18 13:14:40;;;;;;;11.67;9.27;;;;;;;16.27;59.40;100451.30;147803;1147;104573;-71
2021/04/18 13:17:43;;;;;;;10.70;8.57;;;;;;;16.29;59.56;100441.18;147703;1147;104450;-70
2021/04/18 13:20:46;;;;;;;12.47;9.65;;;;;;;16.32;58.46;100442.66;147409;1147;104574;-70
2021/04/18 13:23:54;;;;;;;12.13;9.37;;;;;;;16.26;58.86;100445.09;147583;1147;104495;-69
2021/04/18 13:26:57;;;;;;;11.25;8.95;;;;;;;16.17;58.34;100440.81;147669;1146;104477;-70
2021/04/18 13:30:00;;;;;;;16.63;12.10;;;;;;;16.02;58.19;100442.66;147472;1147;104543;-73
2021/04/18 13:33:04;;;;;;;17.12;13.13;;;;;;;15.90;58.70;100444.97;147573;1148;104572;-66
2021/04/18 13:36:09;;;;;;;16.52;12.33;;;;;;;15.74;58.72;100439.72;147667;1147;104550;-66
2021/04/18 13:39:13;;;;;;;14.23;11.10;;;;;;;15.55;59.01;100439.20;147620;1147;104522;-67
2021/04/18 13:42:16;;;;;;;16.10;11.50;;;;;;;15.37;58.00;100431.42;147200;1147;104435;-69
2021/04/18 13:45:20;;;;;;;16.67;11.87;;;;;;;15.27;58.64;100437.05;147341;1147;104540;-71